d.8/12 - Jorden passerer meteorsværmen Geminiderne. Op mod 120 stjerneskud i timen, topper 14-15 december.


Vejr3>N more information Vejr3>N


Vejr3>V more information Vejr3>V


3 timers nedbørs radar more information rain snow radar


besøg nogle andre vejrsider:

Template dokumentation
og downloads

And another site


lokal metar reports

   
EKRK - Roskilde
opdateret: 19-12-2018 16:50
let regn, mest skyet  
let regn, mest skyet  
   vind: sø 5.1 m/s
vind: sø 5.1 m/s
temperatur: 3°C
wind chill: -1°C
dugpunkt: 1°C
fugtighed: 87%
barometer: 1013 hPa
skyer: Mostly Cloudy
sigt: 8 km
sky detaljer: delvis skyet 335.3 m,
mest skyet 487.7 m
EKRK 191550Z AUTO 14010KT 8000NDV -RA SCT011/// BKN016/// 03/01 Q1013
EKCH - Copenhagen
opdateret: 19-12-2018 16:50
let regn, mest skyet  
let regn, mest skyet  
   vind: ssø 7.7 m/s
vind: ssø 7.7 m/s
temperatur: 3°C
wind chill: -2°C
dugpunkt: 1°C
fugtighed: 87%
barometer: 1015 hPa
skyer: Mostly Cloudy
sigt: 9 km
sky detaljer: delvis skyet 304.8 m,
mest skyet 396.2 m
EKCH 191550Z 15015KT 9000 -RA SCT010 BKN013 03/01 Q1015 NOSIG
EHBK - Maastricht
opdateret: 19-12-2018 16:55
mest skyet  
mest skyet  
   vind: syd 5.7 m/s
vind: syd 5.7 m/s
temperatur: 8°C
wind chill: 5°C
dugpunkt: 6°C
fugtighed: 87%
barometer: 1011 hPa
skyer: Mostly Cloudy
sigt: mere end 10 km
sky detaljer: mest skyet 731.5 m,
mest skyet 823 m,
mest skyet 1066.8 m
EHBK 191555Z AUTO 18011KT 9999 BKN024 BKN027 BKN035 08/06 Q1011 NOSIG
ELLX - Luxemburg
opdateret: 19-12-2018 16:50
Light Showers, regn, mest skyet  
Light Showers, regn, mest skyet  
   vind: syd 3.1 m/s
vind: syd 3.1 m/s
temperatur: 7°C
wind chill: 5°C
dugpunkt: 6°C
fugtighed: 93%
barometer: 1012 hPa
skyer: Mostly Cloudy
sigt: mere end 10 km
sky detaljer: få skyer 274.3 m,
delvis skyet 396.2 m,
mest skyet 640.1 m
ELLX 191550Z 17006KT 140V210 9999 -SHRA FEW009 SCT013 BKN021 07/06 Q1012 NOSIG
  

script udviklet af  Saratoga-weather.org tilpasset til dette template  Weerstation Leuven

du finder også vores vejrinformationer på:

European Weather Network

Weather Underground

AWEKAS

WeatherlinkIP

Citizen Weather Observer Program (CWOP)

udstyr som vi anvender:

vejrstation
Davis VP2+

vejrprogram
Weather Display

vejrserver
Dell E6400

hjemmeside host
Webhosting.dk

Davis VP2+

Weather Display

Dell E6400

Webhosting.dk